Time;durP1;ratioP1;P1;durP2;ratioP2;P2;SDS_P1;SDS_P2;PMS_P1;PMS_P2;Temp;Humidity;BMP_temperature;BMP_pressure;BME280_temperature;BME280_humidity;BME280_pressure;Samples;Min_cycle;Max_cycle;Signal;HPM_P1;HPM_P2
2022/01/12 00:01:12;;;;;;;7.67;5.97;;;5.00;99.90;;;;;;5066948;28;20415;-40
2022/01/12 00:03:38;;;;;;;6.37;5.20;;;5.00;99.90;;;;;;5067210;28;20436;-39
2022/01/12 00:06:05;;;;;;;6.23;5.30;;;5.30;99.90;;;;;;5062255;28;20485;-40
2022/01/12 00:08:31;;;;;;;6.63;5.00;;;5.10;99.90;;;;;;5065398;28;20412;-39
2022/01/12 00:11:02;;;;;;;7.63;4.60;;;5.00;99.90;;;;;;5066817;28;20408;-40
2022/01/12 00:13:29;;;;;;;8.87;5.93;;;5.40;99.90;;;;;;5068416;28;20434;-40
2022/01/12 00:15:55;;;;;;;6.60;5.27;;;5.20;99.90;;;;;;5082555;28;20426;-39
2022/01/12 00:18:22;;;;;;;6.50;5.10;;;5.40;99.90;;;;;;5087484;28;20431;-39
2022/01/12 00:20:49;;;;;;;5.93;5.30;;;5.30;99.90;;;;;;5085011;28;20410;-39
2022/01/12 00:23:15;;;;;;;5.60;4.20;;;5.40;99.90;;;;;;5058988;28;20731;-39
2022/01/12 00:26:05;;;;;;;7.80;4.63;;;5.20;99.90;;;;;;5067289;28;20854;-39
2022/01/12 00:34:04;;;;;;;5.40;3.90;;;4.70;99.90;;;;;;5066206;28;20906;-43
2022/01/12 00:36:31;;;;;;;5.13;3.83;;;4.60;99.90;;;;;;5060694;28;20784;-40
2022/01/12 00:38:58;;;;;;;5.50;4.13;;;5.00;99.90;;;;;;5060822;28;20841;-40
2022/01/12 00:41:23;;;;;;;5.87;3.27;;;5.20;99.90;;;;;;5066425;28;20485;-39
2022/01/12 00:43:56;;;;;;;5.93;3.53;;;5.00;99.90;;;;;;5082850;28;20419;-39
2022/01/12 00:46:22;;;;;;;6.03;3.50;;;5.20;99.90;;;;;;5065912;28;20271;-39
2022/01/12 00:48:48;;;;;;;4.80;4.00;;;5.00;99.90;;;;;;5066709;28;20435;-40
2022/01/12 00:51:14;;;;;;;4.90;3.90;;;5.20;99.90;;;;;;5063210;28;20453;-39
2022/01/12 00:53:40;;;;;;;4.57;3.80;;;5.30;99.90;;;;;;5062052;28;20270;-42
2022/01/12 00:56:06;;;;;;;5.20;3.83;;;5.10;99.90;;;;;;5066611;28;20196;-40
2022/01/12 00:58:35;;;;;;;6.23;3.63;;;5.00;99.90;;;;;;5066919;28;20918;-40
2022/01/12 01:01:02;;;;;;;4.40;4.00;;;5.20;99.90;;;;;;5065864;28;20415;-40
2022/01/12 01:03:29;;;;;;;4.00;3.53;;;5.10;99.90;;;;;;5067018;28;20920;-40
2022/01/12 01:05:56;;;;;;;4.23;3.50;;;5.10;99.90;;;;;;5066834;28;20415;-39
2022/01/12 01:08:22;;;;;;;3.93;3.30;;;5.20;99.90;;;;;;5060845;28;20825;-39
2022/01/12 01:10:51;;;;;;;5.60;3.87;;;5.10;99.90;;;;;;5066064;28;20458;-40
2022/01/12 01:13:24;;;;;;;3.93;3.40;;;5.00;99.90;;;;;;5067976;28;20427;-39
2022/01/12 01:26:33;;;;;;;7.83;3.53;;;5.10;99.90;;;;;;5066419;28;20772;-39
2022/01/12 01:28:59;;;;;;;4.70;2.80;;;5.00;99.90;;;;;;5066681;28;20445;-40
2022/01/12 01:31:30;;;;;;;3.77;3.37;;;4.80;99.90;;;;;;5065987;28;20196;-39
2022/01/12 01:33:56;;;;;;;4.70;3.33;;;4.70;99.90;;;;;;5066534;28;20221;-39
2022/01/12 01:36:27;;;;;;;6.13;3.63;;;4.90;99.90;;;;;;5063682;28;20426;-41
2022/01/12 01:38:53;;;;;;;5.80;3.73;;;4.80;99.90;;;;;;5059660;28;20271;-40
2022/01/12 01:41:21;;;;;;;3.87;3.47;;;4.90;99.90;;;;;;5065996;28;20785;-40
2022/01/12 01:44:19;;;;;;;5.27;3.50;;;4.90;99.90;;;;;;5066473;28;20471;-39
2022/01/12 01:55:08;;;;;;;6.40;3.20;;;4.90;99.90;;;;;;5065023;28;20458;-39
2022/01/12 01:57:35;;;;;;;3.60;3.03;;;5.00;99.90;;;;;;5069811;28;20458;-39
2022/01/12 02:00:04;;;;;;;5.23;3.47;;;5.10;99.90;;;;;;5069511;28;20430;-39
2022/01/12 02:02:29;;;;;;;3.60;3.30;;;4.90;99.90;;;;;;5056699;28;20779;-41
2022/01/12 02:04:55;;;;;;;3.30;3.00;;;5.30;99.90;;;;;;5085563;28;20530;-40
2022/01/12 02:07:21;;;;;;;4.20;3.10;;;5.00;99.90;;;;;;5062557;28;20194;-40
2022/01/12 02:09:46;;;;;;;3.97;3.30;;;5.00;99.90;;;;;;5061528;28;20189;-40
2022/01/12 02:12:12;;;;;;;3.50;3.20;;;4.90;99.90;;;;;;5069647;28;20196;-39
2022/01/12 02:14:39;;;;;;;4.93;3.43;;;5.10;99.90;;;;;;5082946;28;20586;-40
2022/01/12 02:17:16;;;;;;;5.13;3.30;;;4.80;99.90;;;;;;5078356;28;20449;-39
2022/01/12 02:36:27;;;;;;;3.70;3.20;;;5.30;99.90;;;;;;5069654;28;20491;-39
2022/01/12 02:41:39;;;;;;;4.90;3.20;;;5.30;99.90;;;;;;5068147;28;20419;-40
2022/01/12 02:54:48;;;;;;;5.43;3.20;;;4.80;99.90;;;;;;5061044;28;20738;-39
2022/01/12 02:57:13;;;;;;;3.80;3.20;;;4.60;99.90;;;;;;5067973;28;20833;-40
2022/01/12 02:59:56;;;;;;;4.93;3.27;;;4.80;99.90;;;;;;5068431;28;20734;-39
2022/01/12 03:05:35;;;;;;;5.33;3.50;;;4.50;99.90;;;;;;5068974;28;20446;-40
2022/01/12 03:07:40;;;;;;;5.50;3.53;;;4.70;99.90;;;;;;5057655;28;20452;-39
2022/01/12 03:10:08;;;;;;;4.07;3.00;;;4.70;99.90;;;;;;5063064;28;20430;-42
2022/01/12 03:12:38;;;;;;;6.27;3.60;;;4.80;99.90;;;;;;5068462;28;20458;-40
2022/01/12 03:15:05;;;;;;;3.60;2.70;;;4.90;99.90;;;;;;5085019;28;20466;-40
2022/01/12 03:17:30;;;;;;;5.70;3.13;;;5.00;99.90;;;;;;5081314;28;20928;-40
2022/01/12 03:19:56;;;;;;;4.07;3.13;;;4.90;99.90;;;;;;5088386;28;20577;-40
2022/01/12 03:22:22;;;;;;;3.20;2.90;;;5.00;99.90;;;;;;5083165;28;20209;-39
2022/01/12 03:24:47;;;;;;;3.83;2.97;;;5.00;99.90;;;;;;5064227;28;20235;-42
2022/01/12 03:27:15;;;;;;;4.93;3.60;;;5.10;99.90;;;;;;5068424;28;20441;-40
2022/01/12 03:29:43;;;;;;;4.97;3.17;;;5.20;99.90;;;;;;5068087;28;20609;-40
2022/01/12 03:32:11;;;;;;;3.03;2.73;;;5.20;99.90;;;;;;5068539;28;20427;-41
2022/01/12 03:34:41;;;;;;;4.07;2.93;;;5.00;99.90;;;;;;5068510;28;20983;-40
2022/01/12 03:39:51;;;;;;;5.20;3.03;;;4.90;99.90;;;;;;5062506;28;20921;-40
2022/01/12 03:42:16;;;;;;;3.53;3.07;;;4.60;99.90;;;;;;5067949;28;20442;-39
2022/01/12 03:44:42;;;;;;;4.60;3.50;;;4.80;99.90;;;;;;5068219;28;20185;-41
2022/01/12 03:47:08;;;;;;;6.70;2.87;;;4.60;99.90;;;;;;5067487;28;20528;-41
2022/01/12 03:49:33;;;;;;;4.40;3.70;;;4.40;99.90;;;;;;5067590;28;20192;-39
2022/01/12 03:51:59;;;;;;;7.10;3.90;;;4.50;99.90;;;;;;5068285;28;20189;-40
2022/01/12 03:54:25;;;;;;;4.70;3.57;;;4.40;99.90;;;;;;5055960;28;20217;-41
2022/01/12 03:56:50;;;;;;;4.53;4.07;;;4.30;99.90;;;;;;5068077;28;20227;-40
2022/01/12 03:59:16;;;;;;;6.57;3.67;;;4.70;99.90;;;;;;5067664;28;20185;-41
2022/01/12 04:01:42;;;;;;;6.17;3.53;;;4.80;99.90;;;;;;5067182;28;20185;-41
2022/01/12 04:04:11;;;;;;;3.93;3.30;;;4.80;99.90;;;;;;5054408;28;20193;-40
2022/01/12 04:09:21;;;;;;;4.50;3.50;;;5.00;99.90;;;;;;5052062;28;20878;-39
2022/01/12 04:11:47;;;;;;;5.70;3.33;;;5.00;99.90;;;;;;5065538;28;20439;-40
2022/01/12 04:14:13;;;;;;;9.50;4.57;;;5.30;99.90;;;;;;5076655;28;20208;-40
2022/01/12 04:16:39;;;;;;;5.90;3.67;;;5.10;99.90;;;;;;5083262;28;20505;-40
2022/01/12 04:19:06;;;;;;;6.77;4.20;;;5.30;99.90;;;;;;5087743;28;20184;-39
2022/01/12 04:21:35;;;;;;;7.23;4.03;;;5.10;99.90;;;;;;5087143;28;20433;-39
2022/01/12 04:24:01;;;;;;;5.17;3.37;;;5.00;99.90;;;;;;5061447;28;20506;-41
2022/01/12 04:26:29;;;;;;;8.33;4.40;;;5.00;99.90;;;;;;5064737;28;20435;-41
2022/01/12 04:28:55;;;;;;;5.50;4.63;;;5.10;99.90;;;;;;5067280;28;20432;-40
2022/01/12 04:31:20;;;;;;;5.63;3.97;;;4.70;99.90;;;;;;5066586;28;20426;-40
2022/01/12 04:33:47;;;;;;;5.30;4.47;;;4.90;99.90;;;;;;5067249;28;20231;-40
2022/01/12 04:36:14;;;;;;;6.50;4.07;;;5.00;99.90;;;;;;5067100;28;20545;-40
2022/01/12 04:38:42;;;;;;;5.10;4.70;;;5.00;99.90;;;;;;5058936;28;20427;-39
2022/01/12 04:41:09;;;;;;;4.23;3.77;;;4.90;99.90;;;;;;5063196;28;20423;-39
2022/01/12 04:43:39;;;;;;;5.90;4.43;;;4.80;99.90;;;;;;5066929;28;20411;-42
2022/01/12 04:48:38;;;;;;;5.03;3.77;;;5.10;99.90;;;;;;5067224;28;20430;-40
2022/01/12 04:51:04;;;;;;;5.83;4.80;;;5.00;99.90;;;;;;5066333;28;20442;-40
2022/01/12 04:53:31;;;;;;;8.00;4.87;;;5.10;99.90;;;;;;5064111;28;20518;-40
2022/01/12 04:55:57;;;;;;;7.00;5.03;;;4.90;99.90;;;;;;5065291;28;20443;-40
2022/01/12 04:58:24;;;;;;;7.63;4.83;;;4.80;99.90;;;;;;5066607;28;20415;-41
2022/01/12 05:00:57;;;;;;;5.20;4.30;;;5.00;99.90;;;;;;5066636;28;20424;-40
2022/01/12 05:09:07;;;;;;;6.80;4.90;;;4.90;99.90;;;;;;5058858;28;20531;-42
2022/01/12 05:14:18;;;;;;;6.33;5.27;;;4.80;99.90;;;;;;5075665;28;20465;-40
2022/01/12 05:16:44;;;;;;;6.67;5.40;;;5.00;99.90;;;;;;5085089;28;20427;-39
2022/01/12 05:19:09;;;;;;;5.80;5.27;;;4.90;99.90;;;;;;5087540;28;20985;-42
2022/01/12 05:21:36;;;;;;;9.33;5.23;;;4.90;99.90;;;;;;5093373;28;20196;-40
2022/01/12 05:24:06;;;;;;;7.73;5.47;;;4.90;99.90;;;;;;5072358;28;20186;-40
2022/01/12 05:26:32;;;;;;;8.33;5.80;;;4.90;99.90;;;;;;5071981;28;20423;-39
2022/01/12 05:28:58;;;;;;;6.33;5.00;;;5.00;99.90;;;;;;5073171;28;20449;-40
2022/01/12 05:31:24;;;;;;;8.27;5.60;;;5.00;99.90;;;;;;5072716;28;20423;-40
2022/01/12 05:33:50;;;;;;;8.73;5.80;;;5.10;99.90;;;;;;5072920;28;20243;-39
2022/01/12 05:36:18;;;;;;;7.53;5.73;;;4.60;99.90;;;;;;5071629;28;20427;-40
2022/01/12 05:38:44;;;;;;;6.13;5.33;;;4.80;99.90;;;;;;5065505;28;20438;-40
2022/01/12 05:41:11;;;;;;;6.13;5.50;;;4.90;99.90;;;;;;5067215;28;20433;-40
2022/01/12 05:43:38;;;;;;;7.70;5.50;;;4.70;99.90;;;;;;5072973;28;20464;-40
2022/01/12 05:46:11;;;;;;;6.40;5.07;;;4.80;99.90;;;;;;5066659;28;20430;-40
2022/01/12 05:51:23;;;;;;;7.53;5.40;;;4.80;99.90;;;;;;5071648;28;20455;-40
2022/01/12 05:53:49;;;;;;;8.20;6.00;;;4.70;99.90;;;;;;5068833;28;20462;-40
2022/01/12 05:56:15;;;;;;;7.10;5.63;;;4.80;99.90;;;;;;5070922;28;20443;-40
2022/01/12 05:58:41;;;;;;;6.63;5.80;;;4.60;99.90;;;;;;5072750;28;20182;-40
2022/01/12 06:01:06;;;;;;;8.20;5.47;;;4.80;99.90;;;;;;5072362;28;20181;-41
2022/01/12 06:03:32;;;;;;;6.27;5.30;;;4.90;99.90;;;;;;5073096;28;20823;-40
2022/01/12 06:05:58;;;;;;;7.20;5.57;;;4.90;99.90;;;;;;5072945;28;20189;-40
2022/01/12 06:08:23;;;;;;;8.10;5.67;;;4.90;99.90;;;;;;5070577;28;20637;-40
2022/01/12 06:10:49;;;;;;;6.40;5.37;;;5.10;99.90;;;;;;5064843;28;20184;-40
2022/01/12 06:13:15;;;;;;;7.87;6.20;;;4.90;99.90;;;;;;5073485;28;20227;-40
2022/01/12 06:15:40;;;;;;;6.53;5.80;;;5.00;99.90;;;;;;5092995;28;20223;-39
2022/01/12 06:18:06;;;;;;;7.13;5.60;;;5.00;99.90;;;;;;5078622;28;20282;-40
2022/01/12 06:20:32;;;;;;;8.83;5.63;;;5.10;99.90;;;;;;5066875;28;20189;-40
2022/01/12 06:22:57;;;;;;;10.43;6.30;;;5.00;99.90;;;;;;5072423;28;20598;-40
2022/01/12 06:25:23;;;;;;;8.17;6.70;;;5.00;99.90;;;;;;5064031;28;20205;-40
2022/01/12 06:27:52;;;;;;;9.23;5.80;;;4.90;99.90;;;;;;5072232;28;20185;-40
2022/01/12 06:32:53;;;;;;;6.90;5.90;;;4.60;99.90;;;;;;5076064;28;20566;-40
2022/01/12 06:35:19;;;;;;;9.80;6.63;;;4.90;99.90;;;;;;5078544;28;20464;-40
2022/01/12 06:37:45;;;;;;;7.30;6.10;;;4.80;99.90;;;;;;5089478;28;20904;-42
2022/01/12 06:40:12;;;;;;;10.83;7.00;;;4.70;99.90;;;;;;5057128;28;20182;-40
2022/01/12 06:42:38;;;;;;;8.17;6.73;;;4.70;99.90;;;;;;5068378;28;20419;-40
2022/01/12 06:45:04;;;;;;;7.90;5.87;;;4.60;99.90;;;;;;5069577;28;21071;-43
2022/01/12 06:47:30;;;;;;;9.20;6.50;;;4.90;99.90;;;;;;5067417;28;20204;-41
2022/01/12 06:49:55;;;;;;;8.23;6.73;;;4.70;99.90;;;;;;5064725;28;20817;-42
2022/01/12 06:52:21;;;;;;;10.93;6.33;;;4.90;99.90;;;;;;5068937;28;20228;-40
2022/01/12 06:54:47;;;;;;;8.10;6.43;;;5.00;99.90;;;;;;5058594;28;20215;-39
2022/01/12 06:57:12;;;;;;;11.37;6.40;;;4.70;99.90;;;;;;5064786;28;20229;-39
2022/01/12 06:59:38;;;;;;;8.97;6.57;;;4.60;99.90;;;;;;5068802;28;20189;-40
2022/01/12 07:02:04;;;;;;;7.60;6.23;;;4.70;99.90;;;;;;5066132;28;20189;-41
2022/01/12 07:04:30;;;;;;;7.77;6.40;;;4.80;99.90;;;;;;5063262;28;20553;-40
2022/01/12 07:06:56;;;;;;;11.00;6.77;;;4.80;99.90;;;;;;5068914;28;20419;-40
2022/01/12 07:09:21;;;;;;;8.10;6.40;;;4.70;99.90;;;;;;5061704;28;20640;-40
2022/01/12 07:11:48;;;;;;;9.60;6.83;;;4.80;99.90;;;;;;5064932;28;20189;-40
2022/01/12 07:14:14;;;;;;;9.77;7.60;;;4.90;99.90;;;;;;5068783;28;20205;-39
2022/01/12 07:16:39;;;;;;;8.87;6.80;;;5.00;99.90;;;;;;5067571;28;20764;-40
2022/01/12 07:19:05;;;;;;;10.10;7.40;;;4.70;99.90;;;;;;5068704;28;20420;-40
2022/01/12 07:21:31;;;;;;;13.83;8.50;;;5.00;99.90;;;;;;5068286;28;20515;-39
2022/01/12 07:23:57;;;;;;;9.37;7.43;;;5.00;99.90;;;;;;5064536;28;20428;-40
2022/01/12 07:26:24;;;;;;;12.10;7.43;;;5.00;99.90;;;;;;5065428;28;20431;-40
2022/01/12 07:28:50;;;;;;;11.07;7.93;;;4.60;99.90;;;;;;5068586;28;20189;-39
2022/01/12 07:31:16;;;;;;;9.80;7.30;;;4.70;99.90;;;;;;5065970;28;20520;-41
2022/01/12 07:33:41;;;;;;;8.93;6.60;;;4.80;99.90;;;;;;5069174;28;20430;-41
2022/01/12 07:36:07;;;;;;;11.13;7.23;;;4.70;99.90;;;;;;5067407;28;20423;-42
2022/01/12 07:38:33;;;;;;;9.53;7.23;;;4.70;99.90;;;;;;5066410;28;20735;-41
2022/01/12 07:40:59;;;;;;;9.40;7.60;;;4.80;99.90;;;;;;5056545;28;20177;-40
2022/01/12 07:43:25;;;;;;;10.10;7.60;;;4.90;99.90;;;;;;5065755;28;20185;-40
2022/01/12 07:45:51;;;;;;;11.00;7.50;;;4.60;99.90;;;;;;5067421;28;20196;-40
2022/01/12 07:48:16;;;;;;;9.87;7.70;;;4.70;99.90;;;;;;5064857;28;20246;-40
2022/01/12 07:50:44;;;;;;;10.33;7.83;;;4.50;99.90;;;;;;5069639;28;20419;-40
2022/01/12 07:53:10;;;;;;;13.63;7.47;;;4.60;99.90;;;;;;5067594;28;20181;-40
2022/01/12 07:55:36;;;;;;;10.20;8.13;;;4.60;99.90;;;;;;5060706;28;20664;-42
2022/01/12 07:58:02;;;;;;;9.10;7.10;;;4.30;99.90;;;;;;5067896;28;20565;-40
2022/01/12 08:00:28;;;;;;;9.03;7.30;;;4.50;99.90;;;;;;5070338;28;20623;-40
2022/01/12 08:02:54;;;;;;;9.57;7.70;;;4.60;99.90;;;;;;5067385;28;20415;-39
2022/01/12 08:05:21;;;;;;;11.93;7.40;;;4.80;99.90;;;;;;5067385;28;20697;-41
2022/01/12 08:07:48;;;;;;;10.57;7.40;;;4.70;99.90;;;;;;5067496;28;20423;-40
2022/01/12 08:10:15;;;;;;;8.87;7.60;;;4.60;99.90;;;;;;5062747;28;20831;-40
2022/01/12 08:12:41;;;;;;;10.23;7.50;;;4.60;99.90;;;;;;5069989;28;20418;-40
2022/01/12 08:15:09;;;;;;;10.57;7.57;;;4.70;99.90;;;;;;5067497;28;20471;-39
2022/01/12 08:17:36;;;;;;;11.70;8.67;;;4.70;99.90;;;;;;5066901;28;20477;-39
2022/01/12 08:20:04;;;;;;;10.20;8.40;;;4.60;99.90;;;;;;5068387;28;20940;-40
2022/01/12 08:22:30;;;;;;;11.27;8.60;;;4.70;99.90;;;;;;5067287;28;20484;-40
2022/01/12 08:24:56;;;;;;;13.97;9.23;;;4.70;99.90;;;;;;5067091;28;20439;-40
2022/01/12 08:27:22;;;;;;;10.33;7.73;;;4.90;99.90;;;;;;5065832;28;20189;-41
2022/01/12 08:29:50;;;;;;;12.87;9.43;;;4.80;99.90;;;;;;5066969;28;20273;-39
2022/01/12 08:32:16;;;;;;;12.23;9.20;;;4.70;99.90;;;;;;5067426;28;20455;-40
2022/01/12 08:34:41;;;;;;;13.13;8.30;;;5.00;99.90;;;;;;5067410;28;20981;-40
2022/01/12 08:37:07;;;;;;;13.17;9.00;;;4.90;99.90;;;;;;5066950;28;20423;-39
2022/01/12 08:39:33;;;;;;;15.23;9.70;;;4.80;99.90;;;;;;5062936;28;20686;-42
2022/01/12 08:41:58;;;;;;;11.60;8.70;;;4.70;99.90;;;;;;5061100;28;20173;-40
2022/01/12 08:44:24;;;;;;;13.67;8.80;;;4.80;99.90;;;;;;5066963;28;20221;-41
2022/01/12 08:46:50;;;;;;;15.13;9.20;;;4.70;99.90;;;;;;5076641;28;20191;-40
2022/01/12 08:49:16;;;;;;;13.13;10.17;;;4.70;99.90;;;;;;5077424;28;20192;-40
2022/01/12 08:51:41;;;;;;;13.67;9.30;;;4.80;99.90;;;;;;5087101;28;20181;-40
2022/01/12 08:54:07;;;;;;;14.47;9.80;;;4.60;99.90;;;;;;5086701;28;20216;-39
2022/01/12 08:56:35;;;;;;;13.03;9.60;;;4.90;99.90;;;;;;5058555;28;20228;-42
2022/01/12 08:59:01;;;;;;;18.70;10.83;;;5.00;99.90;;;;;;5066891;28;20242;-39
2022/01/12 09:01:26;;;;;;;13.67;9.57;;;5.00;99.90;;;;;;5066206;28;20427;-40
2022/01/12 09:03:52;;;;;;;16.80;10.37;;;4.90;99.90;;;;;;5069007;28;20192;-41
2022/01/12 09:06:18;;;;;;;14.00;10.20;;;4.90;99.90;;;;;;5077470;28;20180;-40
2022/01/12 09:08:45;;;;;;;13.20;9.57;;;4.80;99.90;;;;;;5087301;28;20223;-40
2022/01/12 09:11:12;;;;;;;16.40;10.50;;;5.00;99.90;;;;;;5059702;28;20254;-41
2022/01/12 09:13:38;;;;;;;14.37;10.07;;;5.00;99.90;;;;;;5065769;28;20431;-41
2022/01/12 09:16:06;;;;;;;18.37;11.60;;;5.00;99.90;;;;;;5066177;28;20458;-40
2022/01/12 09:18:36;;;;;;;17.20;11.57;;;5.10;99.90;;;;;;5067320;28;20429;-43
2022/01/12 09:21:03;;;;;;;16.20;11.10;;;5.00;99.90;;;;;;5066589;28;20427;-40
2022/01/12 09:23:29;;;;;;;15.10;11.37;;;5.00;99.90;;;;;;5067158;28;20430;-40
2022/01/12 09:25:55;;;;;;;14.40;10.43;;;5.00;99.90;;;;;;5055299;28;20440;-40
2022/01/12 09:28:20;;;;;;;17.03;10.47;;;5.10;99.90;;;;;;5065547;28;20438;-41
2022/01/12 09:30:46;;;;;;;17.73;11.73;;;5.10;99.90;;;;;;5066194;28;20243;-41
2022/01/12 09:33:11;;;;;;;20.03;13.07;;;5.10;99.90;;;;;;5065842;28;20566;-42
2022/01/12 09:35:37;;;;;;;18.67;11.93;;;5.00;99.90;;;;;;5065547;28;20281;-40
2022/01/12 09:38:03;;;;;;;20.43;11.27;;;4.90;99.90;;;;;;5066848;28;20181;-40
2022/01/12 09:40:29;;;;;;;17.90;12.50;;;5.00;99.90;;;;;;5059825;28;20182;-41
2022/01/12 09:42:57;;;;;;;19.27;12.27;;;5.10;99.90;;;;;;5066437;28;20192;-40
2022/01/12 09:45:25;;;;;;;19.20;11.97;;;5.10;99.90;;;;;;5066707;28;20181;-41
2022/01/12 09:47:51;;;;;;;21.40;14.30;;;5.10;99.90;;;;;;5064891;28;20521;-43
2022/01/12 09:50:21;;;;;;;18.50;12.87;;;4.90;99.90;;;;;;5066108;28;20458;-41
2022/01/12 09:52:47;;;;;;;20.43;13.00;;;4.90;99.90;;;;;;5066760;28;20334;-41
2022/01/12 09:55:13;;;;;;;21.00;12.50;;;4.90;99.90;;;;;;5061282;28;20547;-41
2022/01/12 09:57:38;;;;;;;20.67;12.37;;;4.80;99.90;;;;;;5061073;28;20889;-40
2022/01/12 10:00:06;;;;;;;16.67;11.80;;;4.90;99.90;;;;;;5064407;28;20181;-40
2022/01/12 10:02:33;;;;;;;17.80;12.43;;;5.10;99.90;;;;;;5065097;28;20573;-41
2022/01/12 10:05:07;;;;;;;19.83;13.27;;;4.90;99.90;;;;;;5064758;28;20800;-42
2022/01/12 10:07:33;;;;;;;27.10;12.53;;;5.00;99.90;;;;;;5071090;28;20473;-40
2022/01/12 10:10:04;;;;;;;21.63;13.40;;;4.90;99.90;;;;;;5066969;28;20427;-40
2022/01/12 10:12:31;;;;;;;21.93;12.70;;;4.70;99.90;;;;;;5064440;28;20809;-39
2022/01/12 10:15:00;;;;;;;16.87;13.00;;;4.80;99.90;;;;;;5068499;28;20498;-40
2022/01/12 10:17:36;;;;;;;19.67;12.20;;;4.80;99.90;;;;;;5070338;28;20455;-40
2022/01/12 10:20:22;;;;;;;21.07;13.27;;;4.90;99.90;;;;;;5069252;28;20480;-42
2022/01/12 10:23:01;;;;;;;21.30;14.23;;;5.20;99.90;;;;;;5071421;28;20423;-41
2022/01/12 10:25:29;;;;;;;23.73;13.27;;;5.20;99.90;;;;;;5065317;28;21021;-40
2022/01/12 10:27:56;;;;;;;23.20;13.63;;;5.10;99.90;;;;;;5065269;28;20418;-40
2022/01/12 10:30:28;;;;;;;21.47;13.20;;;4.90;99.90;;;;;;5069538;28;20430;-40
2022/01/12 10:33:06;;;;;;;21.47;13.83;;;5.20;99.90;;;;;;5070220;28;20434;-41
2022/01/12 10:35:35;;;;;;;21.20;14.37;;;4.80;99.90;;;;;;5069719;28;20501;-41
2022/01/12 10:38:09;;;;;;;25.07;14.03;;;4.70;99.90;;;;;;5069897;28;20445;-40
2022/01/12 10:41:03;;;;;;;24.87;14.63;;;5.20;99.90;;;;;;5065839;28;20547;-40
2022/01/12 10:43:39;;;;;;;25.77;14.50;;;5.20;99.90;;;;;;5069028;28;20463;-40
2022/01/12 10:46:08;;;;;;;27.23;16.70;;;5.10;99.90;;;;;;5067086;28;20458;-41
2022/01/12 10:48:47;;;;;;;29.00;15.43;;;4.90;99.90;;;;;;5069450;28;20422;-42
2022/01/12 10:51:21;;;;;;;31.93;17.20;;;5.30;99.90;;;;;;5068954;28;20526;-41
2022/01/12 10:53:49;;;;;;;28.80;16.00;;;5.10;99.90;;;;;;5069678;28;20504;-40
2022/01/12 10:56:18;;;;;;;30.80;16.27;;;5.10;99.90;;;;;;5059813;28;20452;-42
2022/01/12 10:58:47;;;;;;;25.00;14.87;;;5.30;99.90;;;;;;5064650;28;20416;-41
2022/01/12 11:01:15;;;;;;;25.90;15.10;;;5.20;99.90;;;;;;5068841;28;20430;-40
2022/01/12 11:03:41;;;;;;;28.20;17.00;;;5.10;99.90;;;;;;5069342;28;20438;-40
2022/01/12 11:06:08;;;;;;;24.37;14.67;;;5.00;99.90;;;;;;5068476;28;20420;-40
2022/01/12 11:08:35;;;;;;;28.27;15.17;;;5.00;99.90;;;;;;5069268;28;20188;-42
2022/01/12 11:11:01;;;;;;;29.83;16.33;;;4.80;99.90;;;;;;5062129;28;21011;-42
2022/01/12 11:13:29;;;;;;;27.33;16.63;;;4.80;99.90;;;;;;5065558;28;20519;-41
2022/01/12 11:15:59;;;;;;;26.47;15.27;;;4.80;99.90;;;;;;5069426;28;20566;-41
2022/01/12 11:18:31;;;;;;;33.67;16.53;;;4.70;99.90;;;;;;5068629;28;20913;-40
2022/01/12 11:21:18;;;;;;;31.97;17.67;;;4.80;99.90;;;;;;5068797;28;20781;-40
2022/01/12 11:23:44;;;;;;;26.80;16.70;;;4.90;99.90;;;;;;5068913;28;20918;-40
2022/01/12 11:26:11;;;;;;;29.03;17.17;;;5.00;99.90;;;;;;5062538;28;20662;-40
2022/01/12 11:28:38;;;;;;;28.00;16.97;;;5.00;99.90;;;;;;5061434;28;20942;-40
2022/01/12 11:31:04;;;;;;;30.80;16.73;;;4.80;99.90;;;;;;5068474;28;20416;-39
2022/01/12 11:33:33;;;;;;;35.20;16.67;;;5.10;99.90;;;;;;5068955;28;20415;-40
2022/01/12 11:36:20;;;;;;;33.73;19.10;;;5.20;99.90;;;;;;5069275;28;20762;-41
2022/01/12 11:38:50;;;;;;;33.43;18.20;;;5.10;99.90;;;;;;5068894;28;20437;-41
2022/01/12 11:41:23;;;;;;;30.23;18.13;;;5.20;99.90;;;;;;5060466;28;20458;-40
2022/01/12 11:43:57;;;;;;;25.23;16.30;;;5.10;99.90;;;;;;5061759;28;20425;-40
2022/01/12 11:46:28;;;;;;;26.13;14.90;;;5.00;99.90;;;;;;5064512;28;20459;-40
2022/01/12 11:48:59;;;;;;;31.43;17.80;;;5.30;99.90;;;;;;5068594;28;20770;-40
2022/01/12 11:51:38;;;;;;;32.27;17.97;;;5.10;99.90;;;;;;5068203;28;20423;-41
2022/01/12 11:54:16;;;;;;;32.57;19.30;;;5.30;99.90;;;;;;5068324;28;20541;-40
2022/01/12 11:57:05;;;;;;;37.77;20.23;;;5.30;99.90;;;;;;5059549;28;20443;-40
2022/01/12 11:59:53;;;;;;;37.27;20.23;;;5.30;99.90;;;;;;5066633;28;20427;-40
2022/01/12 12:02:20;;;;;;;38.47;21.40;;;5.40;99.90;;;;;;5067521;28;20457;-40
2022/01/12 12:04:59;;;;;;;47.40;23.53;;;5.50;99.90;;;;;;5068178;28;20740;-40
2022/01/12 12:07:26;;;;;;;44.20;21.97;;;5.40;99.90;;;;;;5055314;28;20458;-42
2022/01/12 12:09:57;;;;;;;41.03;20.97;;;5.20;99.90;;;;;;5067388;28;20455;-41
2022/01/12 12:12:24;;;;;;;37.57;21.03;;;5.30;99.90;;;;;;5059752;28;20442;-41
2022/01/12 12:14:53;;;;;;;40.60;20.37;;;5.20;99.90;;;;;;5067803;28;20553;-41
2022/01/12 12:17:20;;;;;;;43.47;22.57;;;5.30;99.90;;;;;;5068315;28;20415;-42
2022/01/12 12:19:46;;;;;;;36.60;19.80;;;4.90;99.90;;;;;;5067414;28;20442;-40
2022/01/12 12:22:21;;;;;;;39.13;21.27;;;5.10;99.90;;;;;;5067940;28;20423;-41
2022/01/12 12:24:54;;;;;;;41.87;21.77;;;5.20;99.90;;;;;;5068209;28;20490;-42
2022/01/12 12:27:22;;;;;;;43.17;22.33;;;5.10;99.90;;;;;;5059372;28;20460;-43
2022/01/12 12:29:48;;;;;;;39.23;21.77;;;4.90;99.90;;;;;;5066537;28;20842;-40
2022/01/12 12:32:15;;;;;;;35.63;20.57;;;5.00;99.90;;;;;;5067695;28;20732;-43
2022/01/12 12:34:43;;;;;;;38.47;22.90;;;5.10;99.90;;;;;;5066088;28;20455;-40
2022/01/12 12:37:12;;;;;;;40.60;22.23;;;4.90;99.90;;;;;;5067901;28;20525;-41
2022/01/12 12:39:40;;;;;;;43.47;21.57;;;5.00;99.90;;;;;;5067170;28;20477;-41
2022/01/12 12:42:20;;;;;;;43.67;22.67;;;5.00;99.90;;;;;;5057547;28;20460;-40
2022/01/12 12:44:47;;;;;;;36.80;22.60;;;4.90;99.90;;;;;;5062401;28;20456;-40
2022/01/12 12:47:16;;;;;;;42.70;23.13;;;5.30;99.90;;;;;;5066223;28;20793;-42
2022/01/12 12:49:45;;;;;;;39.63;22.20;;;5.20;99.90;;;;;;5067382;28;20855;-41
2022/01/12 12:52:11;;;;;;;43.47;23.13;;;5.10;99.90;;;;;;5067222;28;20438;-41
2022/01/12 12:54:43;;;;;;;50.17;24.90;;;5.30;99.90;;;;;;5067717;28;20455;-41
2022/01/12 12:57:10;;;;;;;46.00;24.27;;;4.90;99.90;;;;;;5057809;28;20454;-40
2022/01/12 12:59:36;;;;;;;42.60;23.80;;;5.20;99.90;;;;;;5065800;28;20412;-40
2022/01/12 13:02:12;;;;;;;46.77;24.93;;;5.00;99.90;;;;;;5066938;28;20433;-41
2022/01/12 13:04:39;;;;;;;52.37;27.10;;;5.20;99.90;;;;;;5067357;28;20517;-41
2022/01/12 13:07:17;;;;;;;52.30;27.53;;;5.00;99.90;;;;;;5067359;28;20460;-41
2022/01/12 13:09:46;;;;;;;50.10;26.67;;;5.00;99.90;;;;;;5067111;28;20434;-41
2022/01/12 13:12:12;;;;;;;50.57;26.30;;;5.00;99.90;;;;;;5058757;28;20432;-42
2022/01/12 13:14:46;;;;;;;52.33;27.13;;;4.90;99.90;;;;;;5066777;28;20475;-41
2022/01/12 13:17:12;;;;;;;54.30;25.57;;;4.80;99.90;;;;;;5067501;28;20454;-41
2022/01/12 13:22:30;;;;;;;52.13;28.10;;;5.30;99.90;;;;;;5054774;28;20512;-41
2022/01/12 13:24:57;;;;;;;50.47;26.93;;;5.40;99.90;;;;;;5067240;28;20806;-41
2022/01/12 13:27:25;;;;;;;52.00;26.20;;;5.30;99.90;;;;;;5057234;28;20439;-40
2022/01/12 13:29:52;;;;;;;47.70;24.43;;;5.10;99.90;;;;;;5066408;28;20777;-41
2022/01/12 13:32:18;;;;;;;52.57;24.33;;;5.10;99.90;;;;;;5067143;28;20515;-41
2022/01/12 13:35:07;;;;;;;46.00;24.03;;;5.40;99.90;;;;;;5067107;28;20478;-40
2022/01/12 13:37:33;;;;;;;43.77;22.03;;;5.00;99.90;;;;;;5067101;28;20439;-40
2022/01/12 13:40:11;;;;;;;42.27;22.70;;;5.20;99.90;;;;;;5064979;28;20508;-40
2022/01/12 13:42:49;;;;;;;48.83;25.27;;;5.30;99.90;;;;;;5060650;28;20455;-41
2022/01/12 13:45:18;;;;;;;42.77;23.27;;;5.30;99.90;;;;;;5067536;28;20411;-40
2022/01/12 13:47:52;;;;;;;52.77;23.90;;;5.30;99.90;;;;;;5067720;28;20748;-42
2022/01/12 13:50:19;;;;;;;44.33;22.80;;;5.00;99.90;;;;;;5070068;28;20434;-41
2022/01/12 13:52:54;;;;;;;47.73;23.83;;;5.20;99.90;;;;;;5070830;28;20522;-41
2022/01/12 13:55:21;;;;;;;42.13;22.77;;;5.20;99.90;;;;;;5070861;28;20477;-40
2022/01/12 13:57:55;;;;;;;46.00;23.60;;;5.20;99.90;;;;;;5062166;28;20830;-44
2022/01/12 14:00:21;;;;;;;35.97;20.60;;;5.30;99.90;;;;;;5067119;28;20421;-41
2022/01/12 14:02:46;;;;;;;32.60;19.73;;;5.20;99.90;;;;;;5070734;28;20502;-42
2022/01/12 14:05:18;;;;;;;34.07;19.50;;;5.20;99.90;;;;;;5070362;28;20189;-41
2022/01/12 14:07:59;;;;;;;32.43;20.10;;;5.10;99.90;;;;;;5071074;28;20193;-40
2022/01/12 14:10:26;;;;;;;36.20;20.80;;;5.10;99.90;;;;;;5069698;28;20457;-42
2022/01/12 14:12:52;;;;;;;37.67;21.00;;;4.90;99.90;;;;;;5061841;28;20435;-40
2022/01/12 14:15:30;;;;;;;43.23;22.03;;;5.00;99.90;;;;;;5067665;28;20675;-43